Time;durP1;ratioP1;P1;durP2;ratioP2;P2;SDS_P1;SDS_P2;PMS_P1;PMS_P2;Temp;Humidity;BMP_temperature;BMP_pressure;BME280_temperature;BME280_humidity;BME280_pressure;Samples;Min_cycle;Max_cycle;Signal;HPM_P1;HPM_P2
2023/10/22 00:04:43;;;;;;;7.35;3.25;;;;;;;15.71;76.25;99589.13;10253001;28;96784;-85
2023/10/22 00:09:46;;;;;;;;;;;;;;;15.61;77.71;99577.44;10254271;28;96836;-86
2023/10/22 00:14:49;;;;;;;8.73;3.85;;;;;;;15.58;76.58;99577.66;10250669;28;96796;-85
2023/10/22 00:19:55;;;;;;;8.48;3.60;;;;;;;15.63;76.67;99578.19;10250943;28;96864;-85
2023/10/22 00:24:58;;;;;;;8.13;5.03;;;;;;;15.53;77.60;99576.28;10254888;28;96791;-85
2023/10/22 00:30:02;;;;;;;8.95;3.90;;;;;;;15.59;77.43;99571.44;10253368;28;96879;-85
2023/10/22 00:35:07;;;;;;;6.50;3.42;;;;;;;15.63;76.67;99572.06;10251800;28;96748;-86
2023/10/22 00:40:11;;;;;;;6.47;3.47;;;;;;;15.63;76.35;99572.06;10253481;28;97026;-85
2023/10/22 00:45:15;;;;;;;;;;;;;;;15.56;76.80;99566.31;10252084;28;98339;-86
2023/10/22 00:50:20;;;;;;;7.38;3.53;;;;;;;15.55;76.41;99559.34;10252854;28;96801;-86
2023/10/22 00:55:24;;;;;;;5.10;3.50;;;;;;;15.53;76.54;99549.78;10251693;28;96747;-87
2023/10/22 01:00:28;;;;;;;6.05;3.22;;;;;;;15.46;76.83;99544.06;10251190;28;96841;-86
2023/10/22 01:05:36;;;;;;;6.07;3.15;;;;;;;15.40;76.91;99546.31;10251853;28;96869;-86
2023/10/22 01:10:40;;;;;;;4.60;3.05;;;;;;;15.48;76.40;99539.50;10250683;28;97132;-85
2023/10/22 01:15:45;;;;;;;6.83;3.27;;;;;;;15.44;76.42;99530.06;10251998;28;97558;-86
2023/10/22 01:20:50;;;;;;;6.40;2.87;;;;;;;15.42;76.40;99531.16;10255353;28;96913;-88
2023/10/22 01:25:54;;;;;;;6.40;3.03;;;;;;;15.46;75.63;99533.47;10248696;28;96918;-87
2023/10/22 01:30:58;;;;;;;5.53;3.00;;;;;;;15.49;75.54;99529.75;10247856;28;96808;-86
2023/10/22 01:36:01;;;;;;;5.97;2.75;;;;;;;15.49;75.75;99527.94;10249156;28;96720;-85
2023/10/22 01:41:09;;;;;;;5.72;2.95;;;;;;;15.52;75.54;99522.44;10248689;28;96629;-86
2023/10/22 01:46:13;;;;;;;5.93;2.90;;;;;;;15.51;75.61;99515.41;10248276;28;96999;-87
2023/10/22 01:51:16;;;;;;;4.05;2.58;;;;;;;15.53;75.75;99508.22;10240563;28;96823;-86
2023/10/22 01:56:21;;;;;;;4.45;2.90;;;;;;;15.60;74.96;99514.78;10226048;28;96787;-87
2023/10/22 02:01:26;;;;;;;5.20;2.42;;;;;;;15.55;75.52;99508.09;10246762;28;97614;-87
2023/10/22 02:06:29;;;;;;;4.18;2.50;;;;;;;15.54;75.47;99509.91;10247040;28;99223;-88
2023/10/22 02:11:34;;;;;;;4.55;2.55;;;;;;;15.58;75.53;99513.19;10245901;28;96903;-86
2023/10/22 02:16:38;;;;;;;4.85;2.45;;;;;;;15.58;75.12;99511.38;10244799;28;97001;-87
2023/10/22 02:21:41;;;;;;;6.90;2.83;;;;;;;15.60;75.06;99504.16;10247783;28;96635;-89
2023/10/22 02:26:46;;;;;;;4.53;2.78;;;;;;;15.55;75.52;99500.13;10247101;28;97160;-87
2023/10/22 02:31:50;;;;;;;6.13;2.75;;;;;;;15.56;74.67;99489.41;10246340;28;97147;-87
2023/10/22 02:36:53;;;;;;;4.70;2.53;;;;;;;15.54;75.17;99480.75;10248840;28;96851;-86
2023/10/22 02:41:58;;;;;;;3.92;2.05;;;;;;;15.57;75.15;99469.91;10254271;28;97270;-88
2023/10/22 02:47:02;;;;;;;;;;;;;;;15.61;75.84;99462.59;10253243;28;97001;-89
2023/10/22 02:52:06;;;;;;;3.72;2.03;;;;;;;15.60;75.26;99456.41;10252966;28;97050;-87
2023/10/22 02:57:11;;;;;;;3.33;2.17;;;;;;;15.55;75.06;99463.00;10252516;28;96821;-87
2023/10/22 03:02:14;;;;;;;2.55;1.55;;;;;;;15.64;75.04;99457.91;10251886;28;97270;-87
2023/10/22 03:07:18;;;;;;;3.20;1.67;;;;;;;15.63;75.35;99447.41;10251689;28;96859;-86
2023/10/22 03:12:23;;;;;;;4.03;2.28;;;;;;;15.61;74.63;99449.31;10250732;28;96801;-87
2023/10/22 03:17:26;;;;;;;4.20;1.73;;;;;;;15.64;74.65;99444.66;10248047;28;96813;-85
2023/10/22 03:22:30;;;;;;;3.25;2.05;;;;;;;15.57;74.83;99430.13;10252132;28;99164;-87
2023/10/22 03:27:35;;;;;;;3.42;1.70;;;;;;;15.54;74.37;99437.47;10250831;28;96949;-87
2023/10/22 03:32:39;;;;;;;2.90;1.85;;;;;;;15.57;74.48;99435.44;10250986;28;96865;-86
2023/10/22 03:37:43;;;;;;;3.03;1.80;;;;;;;15.62;74.50;99430.63;10251115;28;97298;-88
2023/10/22 03:42:48;;;;;;;2.25;1.50;;;;;;;15.61;74.08;99428.09;10251585;28;96994;-86
2023/10/22 03:47:51;;;;;;;2.97;1.77;;;;;;;15.62;74.65;99432.44;10248860;28;97283;-87
2023/10/22 03:52:55;;;;;;;3.83;1.70;;;;;;;15.56;74.72;99425.78;10249673;28;96795;-86
2023/10/22 03:57:59;;;;;;;2.92;2.00;;;;;;;15.59;74.31;99422.06;10249635;28;97060;-86
2023/10/22 04:03:03;;;;;;;3.30;1.77;;;;;;;15.52;74.18;99420.81;10247917;28;96956;-87
2023/10/22 04:08:07;;;;;;;4.68;1.90;;;;;;;15.49;74.86;99419.22;10239575;28;96781;-86
2023/10/22 04:13:12;;;;;;;3.13;1.60;;;;;;;15.47;74.64;99412.34;10249993;28;96865;-86
2023/10/22 04:18:19;;;;;;;2.95;1.52;;;;;;;15.47;74.24;99410.56;10247743;28;96835;-87
2023/10/22 04:23:23;;;;;;;2.72;1.58;;;;;;;15.45;74.37;99419.56;10250163;28;97096;-87
2023/10/22 04:28:27;;;;;;;3.25;1.40;;;;;;;15.41;74.82;99407.47;10248961;28;96731;-86
2023/10/22 04:33:30;;;;;;;;;;;;;;;15.40;75.08;99409.31;10247986;28;99760;-87
2023/10/22 04:38:34;;;;;;;4.97;1.40;;;;;;;15.39;75.00;99414.72;10250523;28;99481;-86
2023/10/22 04:43:39;;;;;;;4.40;1.58;;;;;;;15.40;75.11;99413.75;10249396;28;96703;-88
2023/10/22 04:48:44;;;;;;;3.15;1.40;;;;;;;15.41;74.79;99412.78;10247755;28;99228;-87
2023/10/22 04:53:47;;;;;;;3.47;1.60;;;;;;;15.38;74.77;99405.06;10247063;28;96953;-88
2023/10/22 04:58:52;;;;;;;2.35;1.30;;;;;;;15.40;74.92;99398.69;10247623;28;97643;-86
2023/10/22 05:03:55;;;;;;;3.38;1.27;;;;;;;15.35;75.28;99398.19;10247094;28;98556;-87
2023/10/22 05:08:58;;;;;;;3.08;1.40;;;;;;;15.39;75.33;99404.13;10247456;28;97024;-87
2023/10/22 05:14:03;;;;;;;3.30;1.40;;;;;;;15.35;75.37;99403.50;10247250;28;96757;-88
2023/10/22 05:19:08;;;;;;;2.65;1.15;;;;;;;15.36;75.05;99399.88;10247333;28;96796;-89
2023/10/22 05:24:11;;;;;;;2.90;1.58;;;;;;;15.39;74.92;99394.34;10242138;28;96751;-80
2023/10/22 05:29:16;;;;;;;3.00;1.40;;;;;;;15.39;74.94;99390.88;10248577;28;96804;-80
2023/10/22 05:34:19;;;;;;;2.55;1.40;;;;;;;15.39;75.20;99390.88;10243844;28;96807;-81
2023/10/22 05:39:22;;;;;;;2.25;1.50;;;;;;;15.39;75.03;99396.16;10235409;28;97147;-79
2023/10/22 05:44:27;;;;;;;3.45;1.38;;;;;;;15.33;75.44;99381.53;10245265;28;96828;-80
2023/10/22 05:49:30;;;;;;;3.55;1.30;;;;;;;15.34;74.94;99383.22;10245999;28;97269;-81
2023/10/22 05:54:34;;;;;;;3.65;1.40;;;;;;;15.34;75.39;99372.63;10246402;28;97057;-81
2023/10/22 05:59:39;;;;;;;4.07;1.57;;;;;;;15.27;75.49;99366.06;10246277;28;98347;-81
2023/10/22 06:04:43;;;;;;;5.60;1.60;;;;;;;15.27;75.81;99381.13;10247620;28;97504;-81
2023/10/22 06:09:47;;;;;;;2.35;1.25;;;;;;;15.30;75.43;99367.66;10245570;28;96854;-81
2023/10/22 06:14:52;;;;;;;1.48;1.33;;;;;;;15.28;75.14;99375.72;10252309;28;97120;-81
2023/10/22 06:19:55;;;;;;;2.42;1.30;;;;;;;15.30;74.93;99381.75;10252955;28;96765;-81
2023/10/22 06:24:59;;;;;;;1.90;1.15;;;;;;;15.29;75.32;99387.16;10252915;28;97046;-82
2023/10/22 06:30:04;;;;;;;2.25;1.30;;;;;;;15.23;75.21;99375.19;10252662;28;96828;-81
2023/10/22 06:35:08;;;;;;;3.33;1.38;;;;;;;15.19;75.83;99373.72;10251508;28;99392;-81
2023/10/22 06:40:12;;;;;;;3.67;1.57;;;;;;;15.17;75.48;99369.47;10255715;28;99325;-81
2023/10/22 06:45:18;;;;;;;2.55;1.50;;;;;;;15.17;75.71;99369.47;10241986;28;98444;-82
2023/10/22 06:50:21;;;;;;;3.22;1.40;;;;;;;15.18;75.83;99363.22;10237201;28;97244;-82
2023/10/22 06:55:24;;;;;;;6.70;1.85;;;;;;;15.16;75.43;99367.78;10245366;28;97686;-82
2023/10/22 07:00:29;;;;;;;6.10;1.50;;;;;;;15.18;75.60;99360.56;10250579;28;96900;-82
2023/10/22 07:05:32;;;;;;;2.83;1.40;;;;;;;15.16;75.49;99358.03;10250508;28;96867;-82
2023/10/22 07:10:35;;;;;;;1.92;1.08;;;;;;;15.21;75.17;99360.34;10254493;28;96689;-82
2023/10/22 07:15:40;;;;;;;2.17;1.35;;;;;;;15.24;74.82;99368.91;10252169;28;96721;-79
2023/10/22 07:20:46;;;;;;;4.07;1.38;;;;;;;15.27;75.29;99368.72;10283831;28;96718;-79
2023/10/22 07:25:49;;;;;;;2.05;1.10;;;;;;;15.33;74.82;99376.25;10251374;28;97248;-79
2023/10/22 07:30:53;;;;;;;2.67;1.30;;;;;;;15.41;74.55;99389.78;10250854;28;97140;-80
2023/10/22 07:36:00;;;;;;;1.70;0.98;;;;;;;15.43;74.84;99387.88;10250655;28;99433;-79
2023/10/22 07:41:03;;;;;;;2.40;1.17;;;;;;;15.52;74.71;99381.91;10251944;28;97423;-80
2023/10/22 07:46:10;;;;;;;3.22;1.60;;;;;;;15.56;74.14;99379.88;10251415;28;98627;-77
2023/10/22 07:51:15;;;;;;;2.75;1.13;;;;;;;15.68;73.67;99382.44;10254394;28;98511;-78
2023/10/22 07:56:19;;;;;;;2.95;1.67;;;;;;;15.71;73.37;99376.94;10253753;28;96830;-78
2023/10/22 08:01:23;;;;;;;1.77;1.02;;;;;;;15.65;73.69;99368.56;10262536;28;97140;-78
2023/10/22 08:06:27;;;;;;;2.83;1.45;;;;;;;15.57;73.40;99382.41;10251521;28;96819;-78
2023/10/22 08:11:31;;;;;;;3.38;1.20;;;;;;;15.50;73.91;99377.66;10252221;28;96849;-78
2023/10/22 08:16:37;;;;;;;3.23;1.60;;;;;;;15.49;73.86;99384.75;10280221;22;98912;-78
2023/10/22 08:21:41;;;;;;;1.70;1.20;;;;;;;15.53;74.43;99378.28;10307237;28;96827;-78
2023/10/22 08:26:44;;;;;;;2.80;1.40;;;;;;;15.55;73.76;99380.81;10293699;28;97118;-78
2023/10/22 08:31:49;;;;;;;2.50;1.38;;;;;;;15.52;74.08;99370.44;10293086;28;98782;-78
2023/10/22 08:36:52;;;;;;;3.53;1.38;;;;;;;15.54;74.04;99377.34;10292024;28;96799;-78
2023/10/22 08:42:01;;;;;;;2.72;1.50;;;;;;;15.60;73.71;99378.66;10292593;28;96769;-79
2023/10/22 08:47:08;;;;;;;3.45;1.13;;;;;;;15.61;73.92;99383.84;10282370;28;96817;-80
2023/10/22 08:52:11;;;;;;;3.10;1.50;;;;;;;15.67;73.44;99375.44;10291918;28;96800;-79
2023/10/22 08:57:15;;;;;;;4.05;1.60;;;;;;;15.69;73.30;99370.88;10291440;28;96890;-80
2023/10/22 09:02:26;;;;;;;1.90;1.15;;;;;;;15.76;73.21;99368.63;10290633;28;98872;-80
2023/10/22 09:07:51;;;;;;;3.05;1.27;;;;;;;15.87;72.97;99369.50;10290846;28;98953;-80
2023/10/22 09:12:55;;;;;;;2.42;1.23;;;;;;;15.97;72.37;99372.31;10288847;28;96958;-79
2023/10/22 09:18:03;;;;;;;2.80;0.90;;;;;;;16.13;71.93;99377.31;10267102;28;96818;-80
2023/10/22 09:23:13;;;;;;;3.72;1.30;;;;;;;16.21;71.54;99370.44;10291224;28;97656;-80
2023/10/22 09:28:20;;;;;;;2.88;1.35;;;;;;;16.26;71.28;99367.44;10301258;28;97485;-79
2023/10/22 09:33:33;;;;;;;1.83;1.30;;;;;;;16.27;71.06;99361.19;10292614;28;96622;-79
2023/10/22 09:38:44;;;;;;;6.95;1.25;;;;;;;16.29;71.10;99359.25;10292277;28;96928;-79
2023/10/22 09:43:47;;;;;;;1.98;1.20;;;;;;;16.39;71.11;99361.09;10293522;28;96768;-79
2023/10/22 09:48:56;;;;;;;1.85;0.98;;;;;;;16.36;69.74;99363.13;10291856;28;96819;-79
2023/10/22 09:54:05;;;;;;;2.92;1.05;;;;;;;16.59;69.40;99348.91;10289389;28;96791;-80
2023/10/22 09:59:10;;;;;;;2.72;1.50;;;;;;;16.69;69.60;99344.56;10289380;28;96812;-80
2023/10/22 10:04:15;;;;;;;2.63;0.82;;;;;;;16.63;69.54;99340.59;10293898;28;96758;-81
2023/10/22 10:09:19;;;;;;;2.95;0.93;;;;;;;16.70;69.44;99325.03;10290959;28;96717;-79
2023/10/22 10:14:46;;;;;;;3.28;1.00;;;;;;;16.83;69.00;99320.41;10288478;28;96794;-79
2023/10/22 10:19:51;;;;;;;2.88;1.10;;;;;;;17.49;67.38;99307.00;10284711;28;96867;-80
2023/10/22 10:25:28;;;;;;;2.25;1.15;;;;;;;18.00;65.94;99296.47;10287535;28;96873;-80
2023/10/22 10:30:32;;;;;;;1.40;0.90;;;;;;;18.45;64.09;99291.66;10309984;28;96821;-80
2023/10/22 10:35:45;;;;;;;4.13;1.50;;;;;;;19.48;62.37;99291.28;10284563;28;97544;-80
2023/10/22 10:40:50;;;;;;;1.48;1.00;;;;;;;20.04;59.60;99279.72;10282915;28;98200;-80
2023/10/22 10:46:25;;;;;;;2.30;0.90;;;;;;;21.42;56.89;99288.56;10278618;28;96776;-80
2023/10/22 10:51:30;;;;;;;1.88;0.90;;;;;;;22.17;54.63;99275.50;10284720;28;96779;-78
2023/10/22 10:56:48;;;;;;;2.45;1.05;;;;;;;22.52;51.92;99274.53;10287484;28;96833;-79
2023/10/22 11:01:58;;;;;;;2.10;1.00;;;;;;;21.69;54.29;99272.44;10312312;28;96928;-79
2023/10/22 11:07:04;;;;;;;2.63;0.90;;;;;;;21.10;55.70;99274.81;10302225;28;96763;-79
2023/10/22 11:12:28;;;;;;;2.38;1.00;;;;;;;20.34;57.63;99263.50;10291557;28;96718;-78
2023/10/22 11:17:32;;;;;;;2.40;1.02;;;;;;;19.51;59.03;99264.34;10293502;28;96961;-80
2023/10/22 11:22:38;;;;;;;2.08;1.05;;;;;;;19.19;59.87;99254.75;10293143;28;96853;-81
2023/10/22 11:27:41;;;;;;;2.00;0.95;;;;;;;19.06;60.31;99251.47;10291835;28;99154;-77
2023/10/22 11:32:48;;;;;;;1.65;1.17;;;;;;;18.60;61.44;99245.06;10292183;28;96851;-77
2023/10/22 11:37:54;;;;;;;2.20;1.20;;;;;;;18.68;61.40;99234.56;10283718;28;96850;-76
2023/10/22 11:42:59;;;;;;;2.40;1.30;;;;;;;18.46;61.90;99214.31;10289367;28;96826;-81
2023/10/22 11:48:12;;;;;;;3.42;1.02;;;;;;;18.54;61.82;99219.78;10285943;28;97303;-84
2023/10/22 11:53:18;;;;;;;3.20;1.17;;;;;;;18.58;61.49;99204.38;10275777;28;96932;-78
2023/10/22 11:58:24;;;;;;;1.33;0.98;;;;;;;18.53;62.09;99187.94;10292591;28;97061;-78
2023/10/22 12:03:28;;;;;;;2.40;1.30;;;;;;;18.39;62.28;99175.84;10290578;28;97262;-78
2023/10/22 12:08:33;;;;;;;3.13;1.30;;;;;;;18.39;62.25;99174.97;10287025;28;97015;-84
2023/10/22 12:13:36;;;;;;;;;;;;;;;18.36;62.54;99162.78;10287586;28;98471;-87
2023/10/22 12:18:39;;;;;;;2.95;1.10;;;;;;;18.57;62.19;99152.94;10298689;28;96832;-80
2023/10/22 12:23:44;;;;;;;3.38;0.93;;;;;;;18.53;62.26;99148.00;10276836;28;97701;-78
2023/10/22 12:28:52;;;;;;;3.10;1.33;;;;;;;19.05;61.20;99151.13;10284263;28;97143;-81
2023/10/22 12:33:55;;;;;;;4.20;1.45;;;;;;;19.83;58.08;99158.06;10292519;28;96757;-85
2023/10/22 12:39:00;;;;;;;2.78;1.23;;;;;;;20.23;58.15;99153.28;10288635;28;99710;-78
2023/10/22 12:44:04;;;;;;;2.38;1.02;;;;;;;20.35;57.50;99141.44;10288843;28;96799;-79
2023/10/22 12:49:07;;;;;;;4.28;1.13;;;;;;;20.42;56.91;99122.97;10290735;28;96958;-79
2023/10/22 12:54:12;;;;;;;1.90;1.00;;;;;;;20.17;58.07;99121.78;10290881;28;97116;-78
2023/10/22 12:59:15;;;;;;;2.22;1.15;;;;;;;19.92;58.11;99111.81;10290408;28;96720;-79
2023/10/22 13:04:19;;;;;;;2.78;1.02;;;;;;;19.93;58.25;99102.78;10290333;28;97182;-78
2023/10/22 13:09:24;;;;;;;2.83;1.10;;;;;;;19.71;58.46;99098.69;10291135;28;96765;-78
2023/10/22 13:14:27;;;;;;;1.17;0.77;;;;;;;19.57;58.65;99085.78;10289358;28;96913;-79
2023/10/22 13:19:30;;;;;;;1.33;0.82;;;;;;;19.48;58.53;99081.31;10289550;28;96665;-79
2023/10/22 13:24:35;;;;;;;3.90;1.10;;;;;;;19.42;58.48;99073.91;10289246;28;97411;-79
2023/10/22 13:29:38;;;;;;;2.75;1.27;;;;;;;19.78;58.08;99058.88;10289557;28;97485;-78
2023/10/22 13:34:41;;;;;;;2.47;1.00;;;;;;;19.82;57.66;99047.75;10289399;28;96582;-78
2023/10/22 13:39:46;;;;;;;2.53;1.02;;;;;;;19.88;56.87;99040.97;10289198;28;96981;-79
2023/10/22 13:44:50;;;;;;;1.98;0.80;;;;;;;19.84;57.43;99032.44;10325928;28;96861;-79
2023/10/22 13:49:53;;;;;;;2.67;1.10;;;;;;;19.83;57.71;99044.09;10330431;28;97036;-79
2023/10/22 13:54:58;;;;;;;1.50;0.90;;;;;;;19.76;57.64;99042.16;10329837;28;96717;-78
2023/10/22 14:00:02;;;;;;;2.97;0.88;;;;;;;19.76;57.94;99039.50;10304263;28;97881;-79
2023/10/22 14:05:10;;;;;;;2.47;1.02;;;;;;;19.77;57.86;99023.34;10288026;28;96987;-79
2023/10/22 14:10:15;;;;;;;2.70;0.90;;;;;;;19.68;58.30;99036.75;10288890;28;97129;-78
2023/10/22 14:15:20;;;;;;;2.15;0.90;;;;;;;19.84;58.14;99028.94;10287487;28;96873;-78
2023/10/22 14:20:26;;;;;;;1.92;0.98;;;;;;;20.08;57.35;99019.34;10287850;28;96771;-79
2023/10/22 14:25:30;;;;;;;3.03;1.00;;;;;;;20.23;56.56;99007.19;10288440;28;96783;-79
2023/10/22 14:30:33;;;;;;;4.28;1.20;;;;;;;20.41;56.69;99009.06;10288146;28;97158;-78
2023/10/22 14:35:37;;;;;;;2.05;0.98;;;;;;;20.60;56.06;99000.88;10294535;28;96710;-79
2023/10/22 14:40:41;;;;;;;1.83;0.90;;;;;;;20.63;55.87;98993.41;10294834;28;96837;-79
2023/10/22 14:45:45;;;;;;;1.55;0.80;;;;;;;20.51;56.13;98991.09;10294731;28;96923;-79
2023/10/22 14:50:54;;;;;;;2.40;1.05;;;;;;;20.53;55.76;98995.31;10296040;28;97101;-79
2023/10/22 14:56:00;;;;;;;2.75;0.90;;;;;;;20.28;55.86;98983.53;10294311;28;96871;-78
2023/10/22 15:01:05;;;;;;;2.25;0.80;;;;;;;20.30;55.83;98981.56;10294613;28;96633;-79
2023/10/22 15:06:09;;;;;;;2.78;0.90;;;;;;;20.72;55.36;98980.94;10293918;28;96917;-79
2023/10/22 15:11:19;;;;;;;3.03;1.00;;;;;;;20.93;54.76;98976.09;10293884;28;97170;-79
2023/10/22 15:16:23;;;;;;;3.25;0.80;;;;;;;20.82;54.58;98966.47;10293392;28;96586;-78
2023/10/22 15:21:26;;;;;;;4.00;0.97;;;;;;;20.65;55.01;98964.69;10277960;28;96902;-79
2023/10/22 15:26:31;;;;;;;2.47;0.95;;;;;;;20.37;55.12;98955.09;10322349;28;96760;-79
2023/10/22 15:31:34;;;;;;;1.75;0.80;;;;;;;20.45;54.94;98946.28;10334410;28;96727;-79
2023/10/22 15:36:37;;;;;;;2.55;0.73;;;;;;;20.43;55.17;98949.09;10334586;28;97176;-79
2023/10/22 15:41:42;;;;;;;2.22;0.93;;;;;;;20.27;55.67;98951.63;10333710;28;97290;-79
2023/10/22 15:46:45;;;;;;;2.90;1.00;;;;;;;20.00;56.43;98944.50;10333496;28;96842;-79
2023/10/22 15:51:48;;;;;;;2.30;1.60;;;;;;;20.12;56.46;98945.97;10311513;28;96856;-78
2023/10/22 15:56:53;;;;;;;2.42;1.40;;;;;;;19.92;56.74;98951.59;10285875;28;99358;-78
2023/10/22 16:01:56;;;;;;;3.47;1.33;;;;;;;19.93;56.88;98955.94;10292420;28;96737;-78
2023/10/22 16:06:59;;;;;;;1.95;0.98;;;;;;;19.91;56.72;98945.41;10292310;28;97031;-79
2023/10/22 16:12:05;;;;;;;3.15;0.93;;;;;;;19.88;56.99;98944.88;10292191;28;97128;-79
2023/10/22 16:17:08;;;;;;;2.05;0.90;;;;;;;19.80;57.01;98937.63;10291992;28;97267;-78
2023/10/22 16:22:11;;;;;;;5.07;2.00;;;;;;;19.82;57.30;98937.47;10291877;28;97363;-79
2023/10/22 16:27:16;;;;;;;2.22;1.38;;;;;;;19.77;57.45;98937.91;10291422;28;96782;-78
2023/10/22 16:32:19;;;;;;;4.53;1.52;;;;;;;19.66;57.68;98943.47;10292710;28;97647;-78
2023/10/22 16:37:23;;;;;;;2.88;1.42;;;;;;;19.63;57.69;98950.94;10291074;28;97218;-78
2023/10/22 16:42:27;;;;;;;3.15;1.52;;;;;;;19.45;57.82;98950.88;10291040;28;96885;-78
2023/10/22 16:47:31;;;;;;;4.13;1.27;;;;;;;19.35;58.38;98955.41;10289947;28;96855;-79
2023/10/22 16:52:34;;;;;;;1.23;0.90;;;;;;;19.28;58.43;98963.13;10290743;28;97008;-78
2023/10/22 16:57:39;;;;;;;3.00;1.33;;;;;;;19.15;58.78;98953.78;10289700;28;96896;-79
2023/10/22 17:02:42;;;;;;;2.63;1.38;;;;;;;19.23;58.96;98957.38;10290866;28;96895;-79
2023/10/22 17:07:46;;;;;;;3.72;1.63;;;;;;;19.24;59.63;98956.41;10290909;28;97299;-79
2023/10/22 17:12:50;;;;;;;1.95;1.15;;;;;;;19.20;60.82;98959.50;10290017;28;97120;-79
2023/10/22 17:17:53;;;;;;;;;;;;;;;19.12;62.34;98956.75;10290389;28;97349;-79
2023/10/22 17:22:57;;;;;;;4.05;1.30;;;;;;;19.06;61.33;98960.81;10291321;28;96712;-79
2023/10/22 17:28:01;;;;;;;2.25;0.90;;;;;;;19.02;62.07;98954.13;10289857;28;96685;-79
2023/10/22 17:33:05;;;;;;;1.67;1.08;;;;;;;18.93;62.94;98949.66;10289588;28;96872;-79
2023/10/22 17:38:08;;;;;;;1.85;1.15;;;;;;;18.80;63.53;98966.94;10288624;28;96997;-79
2023/10/22 17:43:13;;;;;;;2.45;1.40;;;;;;;18.74;64.27;98960.34;10290109;28;97821;-79
2023/10/22 17:48:16;;;;;;;;;;;;;;;18.62;65.96;98971.31;10262313;28;96642;-79
2023/10/22 17:53:21;;;;;;;4.90;2.30;;;;;;;18.52;65.11;98965.16;10254045;28;97913;-79
2023/10/22 17:58:31;;;;;;;4.65;2.47;;;;;;;18.42;65.74;98969.63;10289606;28;97784;-79
2023/10/22 18:03:36;;;;;;;6.90;2.88;;;;;;;18.39;66.03;98968.06;10288997;28;96589;-79
2023/10/22 18:08:41;;;;;;;5.72;2.85;;;;;;;18.31;66.71;98977.75;10288870;28;96835;-79
2023/10/22 18:13:47;;;;;;;6.70;2.80;;;;;;;18.28;66.85;98981.50;10289545;28;97564;-79
2023/10/22 18:18:50;;;;;;;;;;;;;;;18.13;69.44;98988.25;10288735;28;96672;-79
2023/10/22 18:23:56;;;;;;;3.40;2.00;;;;;;;18.09;67.57;98987.66;10255666;28;96743;-79
2023/10/22 18:29:01;;;;;;;4.18;2.28;;;;;;;18.05;67.70;98998.75;10246965;28;97139;-79
2023/10/22 18:34:04;;;;;;;;;;;;;;;18.04;68.59;99002.38;10326932;28;96653;-79
2023/10/22 18:39:07;;;;;;;4.10;2.13;;;;;;;18.07;67.25;99004.78;10329287;28;97014;-79
2023/10/22 18:44:12;;;;;;;7.53;2.38;;;;;;;18.08;67.15;99011.78;10305933;28;97421;-79
2023/10/22 18:49:15;;;;;;;;;;;;;;;18.08;67.96;99015.28;10273222;28;96579;-79
2023/10/22 18:54:18;;;;;;;5.00;2.95;;;;;;;17.93;67.40;99007.84;10287584;28;96905;-79
2023/10/22 18:59:25;;;;;;;8.77;2.83;;;;;;;17.91;67.65;99017.78;10287540;28;97270;-79
2023/10/22 19:04:28;;;;;;;5.22;2.60;;;;;;;17.81;68.20;99007.09;10288644;28;96927;-79
2023/10/22 19:09:32;;;;;;;5.65;2.70;;;;;;;17.79;68.33;99026.84;10287216;28;96779;-79
2023/10/22 19:14:37;;;;;;;6.05;2.55;;;;;;;17.75;68.91;99033.41;10286649;28;96635;-79
2023/10/22 19:19:40;;;;;;;8.68;2.70;;;;;;;17.70;69.53;99033.81;10289398;28;96947;-79
2023/10/22 19:24:44;;;;;;;6.03;2.60;;;;;;;17.78;69.60;99039.28;10294123;28;96607;-78
2023/10/22 19:29:48;;;;;;;6.50;2.70;;;;;;;17.86;69.19;99043.94;10293929;28;96670;-79
2023/10/22 19:34:51;;;;;;;;;;;;;;;17.74;70.85;99039.72;10293843;28;97622;-79
2023/10/22 19:39:55;;;;;;;4.95;2.90;;;;;;;17.69;70.38;99057.91;10294201;28;96859;-79
2023/10/22 19:45:01;;;;;;;6.25;2.60;;;;;;;17.70;70.11;99060.41;10258774;28;96679;-79
2023/10/22 19:50:05;;;;;;;3.28;1.75;;;;;;;17.68;69.95;99058.84;10252210;28;96939;-79
2023/10/22 19:55:09;;;;;;;5.28;2.13;;;;;;;17.66;70.48;99051.00;10272930;28;97318;-79
2023/10/22 20:00:15;;;;;;;4.55;2.60;;;;;;;17.60;70.69;99050.72;10292564;28;97503;-79
2023/10/22 20:05:19;;;;;;;4.85;2.58;;;;;;;17.61;71.01;99045.25;10292319;28;97314;-79
2023/10/22 20:10:24;;;;;;;5.07;2.60;;;;;;;17.66;70.74;99050.16;10290849;28;97059;-79
2023/10/22 20:15:47;;;;;;;5.93;2.35;;;;;;;17.50;71.16;99045.34;10292286;28;96842;-79
2023/10/22 20:20:50;;;;;;;4.70;2.50;;;;;;;17.51;71.46;99044.38;10291969;28;96675;-79
2023/10/22 20:25:53;;;;;;;4.82;2.45;;;;;;;17.49;71.90;99058.78;10291798;28;97572;-79
2023/10/22 20:30:58;;;;;;;6.40;2.42;;;;;;;17.44;71.99;99056.50;10290593;28;96790;-79
2023/10/22 20:36:03;;;;;;;3.95;1.95;;;;;;;17.44;71.76;99056.50;10291409;28;97199;-79
2023/10/22 20:41:07;;;;;;;;;;;;;;;17.40;72.46;99057.72;10271768;28;97104;-79
2023/10/22 20:46:12;;;;;;;4.97;2.22;;;;;;;17.34;71.53;99060.06;10265634;22;96844;-79
2023/10/22 20:51:16;;;;;;;5.57;2.10;;;;;;;17.17;71.51;99069.50;10250420;28;97169;-79
2023/10/22 20:56:20;;;;;;;5.35;2.20;;;;;;;17.14;71.93;99075.06;10220915;28;96714;-79
2023/10/22 21:01:25;;;;;;;3.03;1.90;;;;;;;16.91;72.17;99078.84;10208894;28;96648;-79
2023/10/22 21:06:28;;;;;;;4.15;2.15;;;;;;;16.69;73.24;99084.22;10244979;28;97099;-79
2023/10/22 21:11:32;;;;;;;3.58;1.70;;;;;;;16.70;73.10;99085.94;10250317;28;97363;-78
2023/10/22 21:16:36;;;;;;;5.05;2.17;;;;;;;16.62;73.49;99097.19;10249412;28;96671;-79
2023/10/22 21:21:45;;;;;;;4.78;1.90;;;;;;;16.48;74.22;99104.63;10249886;28;96779;-79
2023/10/22 21:26:48;;;;;;;4.63;1.90;;;;;;;16.47;73.46;99109.06;10249486;28;97275;-79
2023/10/22 21:31:54;;;;;;;4.30;1.90;;;;;;;16.54;74.11;99118.22;10249391;28;97265;-79
2023/10/22 21:36:57;;;;;;;;;;;;;;;16.49;74.91;99122.22;10251705;28;97761;-79
2023/10/22 21:42:00;;;;;;;3.75;2.05;;;;;;;16.49;73.75;99112.44;10248817;28;96680;-79
2023/10/22 21:47:06;;;;;;;3.42;1.90;;;;;;;16.34;73.92;99111.00;10248472;28;96840;-79
2023/10/22 21:52:09;;;;;;;;;;;;;;;16.22;75.22;99111.97;10248109;28;97146;-79
2023/10/22 21:57:12;;;;;;;6.45;2.30;;;;;;;16.15;74.61;99121.41;10249206;28;97635;-79
2023/10/22 22:02:17;;;;;;;6.80;2.85;;;;;;;16.10;75.07;99133.38;10248502;28;97182;-79
2023/10/22 22:07:20;;;;;;;3.58;2.08;;;;;;;16.09;74.80;99129.03;10248422;28;96605;-79
2023/10/22 22:12:24;;;;;;;3.47;2.17;;;;;;;16.21;75.03;99131.53;10248531;28;96665;-79
2023/10/22 22:17:29;;;;;;;4.25;1.98;;;;;;;16.23;74.66;99126.09;10247724;28;96785;-79
2023/10/22 22:22:33;;;;;;;5.85;2.67;;;;;;;16.24;74.77;99141.09;10248323;28;97098;-78
2023/10/22 22:27:36;;;;;;;4.72;2.38;;;;;;;16.32;74.94;99125.38;10248834;28;97176;-78
2023/10/22 22:32:41;;;;;;;4.80;2.22;;;;;;;16.33;74.62;99129.72;10247147;28;96585;-79
2023/10/22 22:37:45;;;;;;;4.85;2.10;;;;;;;16.46;74.25;99133.09;10247521;28;96726;-79
2023/10/22 22:42:49;;;;;;;5.75;1.88;;;;;;;16.42;74.39;99137.81;10246476;28;96593;-79
2023/10/22 22:47:54;;;;;;;4.68;1.90;;;;;;;16.38;74.20;99141.66;10275897;28;96816;-79
2023/10/22 22:52:57;;;;;;;2.80;2.05;;;;;;;16.38;74.45;99140.78;10288863;28;96953;-79
2023/10/22 22:58:01;;;;;;;5.38;2.03;;;;;;;16.34;74.58;99139.38;10294890;28;96468;-79
2023/10/22 23:03:05;;;;;;;3.63;1.50;;;;;;;16.25;74.84;99130.34;10293734;28;97077;-79
2023/10/22 23:08:09;;;;;;;5.65;2.05;;;;;;;16.30;75.23;99132.63;10294035;28;96630;-79
2023/10/22 23:13:13;;;;;;;4.30;2.08;;;;;;;16.22;74.86;99140.34;10294316;28;97525;-78
2023/10/22 23:18:18;;;;;;;3.50;1.70;;;;;;;16.18;75.45;99138.91;10288185;28;96767;-79
2023/10/22 23:23:21;;;;;;;3.80;2.30;;;;;;;16.15;75.38;99139.16;10213230;28;96757;-78
2023/10/22 23:28:25;;;;;;;3.53;1.77;;;;;;;16.20;74.80;99140.50;10212453;28;96662;-79
2023/10/22 23:33:30;;;;;;;4.45;1.92;;;;;;;16.18;75.47;99147.72;10231860;28;97316;-79
2023/10/22 23:38:33;;;;;;;3.95;1.90;;;;;;;16.25;75.33;99158.69;10253183;28;96949;-79
2023/10/22 23:43:36;;;;;;;3.30;1.85;;;;;;;16.24;75.25;99164.97;10212431;28;96705;-79
2023/10/22 23:48:41;;;;;;;5.40;2.15;;;;;;;16.17;75.25;99179.69;10211684;28;96693;-78